Data for 09/16/2010

Time Sea-Level Adjusted Pressure Absolute Pressure Temperature Relative Humidity Dew Point   
(mb) (inHg) (mb) (inHg) (C) (F) (%) (C) (F)
00:05 1019 30.09 848 25.04 11.3 52.4 53 2 35.7
00:10 1019 30.09 848 25.04 11.7 53.1 51 2.1 35.7
00:15 1019 30.09 848 25.04 11.7 53 52 2.2 35.9
00:20 1019 30.09 848 25.04 11.7 53 51 2 35.6
00:25 1019 30.09 848 25.04 11.6 52.9 51 1.8 35.3
00:30 1019 30.09 848 25.04 11.7 53 52 2.1 35.8
00:35 1019 30.09 848 25.04 11.5 52.7 52 2.2 35.9
00:40 1019 30.09 848 25.04 11.3 52.4 53 2.3 36.1
00:45 1019 30.09 848 25.04 11.1 52 54 2.2 36
00:50 1019 30.09 848 25.04 11.2 52.2 54 2.2 36
00:55 1019 30.09 848 25.04 11.3 52.3 54 2.3 36.1
01:00 1019 30.09 848 25.04 11.4 52.5 53 2.3 36.1
01:05 1019 30.09 848 25.04 11.4 52.4 53 2.1 35.9
01:10 1019 30.09 848 25.04 11.4 52.5 52 2.1 35.7
01:15 1018 30.06 848 25.04 11.4 52.6 53 2.3 36.1
01:20 1018 30.06 848 25.04 11.4 52.4 53 2.2 36
01:25 1018 30.06 848 25.04 11.2 52.1 54 2.3 36.1
01:30 1018 30.06 848 25.04 11.2 52.1 54 2.3 36.1
01:35 1019 30.09 848 25.04 11.3 52.3 54 2.3 36.1
01:40 1018 30.06 848 25.04 11.3 52.4 54 2.3 36.2
01:45 1018 30.06 848 25.04 11.3 52.3 54 2.4 36.3
01:50 1018 30.06 848 25.04 11.1 51.9 55 2.4 36.2
01:55 1018 30.06 848 25.04 11.2 52.1 53 2 35.6
02:00 1018 30.06 848 25.04 11.4 52.5 52 2.1 35.8
02:05 1018 30.06 848 25.04 11.5 52.6 53 2.2 35.9
02:10 1018 30.06 848 25.04 11.5 52.8 51 1.8 35.2
02:15 1018 30.06 848 25.04 11.7 53 50 1.7 35.1
02:20 1018 30.06 848 25.04 11.8 53.3 50 1.7 35.1
02:25 1018 30.06 847 25.01 11.9 53.5 50 2 35.7
02:30 1018 30.06 847 25.01 11.8 53.2 52 2.4 36.3
02:35 1018 30.06 847 25.01 11 51.8 55 2.3 36.1
02:40 1018 30.06 847 25.01 11 51.8 52 1.5 34.8
02:45 1018 30.06 847 25.01 11.1 52 54 2.2 35.9
02:50 1018 30.06 847 25.01 10.9 51.5 54 2 35.5
02:55 1018 30.06 847 25.01 10.6 51.1 56 2.3 36.1
03:00 1018 30.06 847 25.01 10.4 50.7 55 1.9 35.4
03:05 1018 30.06 847 25.01 10.6 51.1 56 2.2 36
03:10 1018 30.06 847 25.01 10.4 50.8 56 2.2 35.9
03:15 1018 30.06 847 25.01 10.3 50.5 56 1.9 35.4
03:20 1018 30.06 847 25.01 10.4 50.8 55 1.9 35.4
03:25 1018 30.06 847 25.01 10.5 51 54 1.7 35.1
03:30 1018 30.06 847 25.01 10.8 51.4 53 1.7 35.1
03:35 1018 30.06 847 25.01 10.8 51.4 55 2.1 35.8
03:40 1018 30.06 847 25.01 10.5 50.9 54 1.6 35
03:45 1018 30.06 847 25.01 11.1 52 50 1.2 34.2
03:50 1018 30.06 847 25.01 11.2 52.1 50 1.2 34.2
03:55 1018 30.06 847 25.01 11.1 52.1 52 1.6 34.9
04:00 1018 30.06 847 25.01 11.2 52.2 51 1.5 34.7
04:05 1018 30.06 847 25.01 11.2 52.2 51 1.4 34.5
04:10 1018 30.06 847 25.01 11.4 52.6 51 1.8 35.2
04:15 1018 30.06 847 25.01 11.2 52.2 53 2.1 35.7
04:20 1018 30.06 847 25.01 11 51.8 55 2.3 36.2
04:25 1018 30.06 847 25.01 10.7 51.3 56 2.2 36
04:30 1018 30.06 847 25.01 10.6 51.1 57 2.5 36.6
04:35 1018 30.06 847 25.01 10.3 50.5 60 2.9 37.2
04:40 1017 30.03 847 25.01 10 50.1 60 2.7 36.9
04:45 1017 30.03 847 25.01 10 50 61 2.8 37
04:50 1017 30.03 847 25.01 10.2 50.4 58 2.4 36.3
04:55 1017 30.03 847 25.01 10.9 51.6 53 1.7 35.1
05:00 1017 30.03 847 25.01 11.4 52.6 52 2.1 35.8
05:05 1017 30.03 847 25.01 11.3 52.3 57 3 37.5
05:10 1017 30.03 847 25.01 10.8 51.5 57 2.8 37
05:15 1017 30.03 847 25.01 10.9 51.6 57 2.8 37
05:20 1017 30.03 847 25.01 10.9 51.7 58 3.2 37.7
05:25 1017 30.03 847 25.01 10.8 51.4 55 2.2 35.9
05:30 1017 30.03 847 25.01 11 51.7 56 2.5 36.5
05:35 1017 30.03 847 25.01 11.1 52 55 2.5 36.5
05:40 1017 30.03 847 25.01 11.2 52.1 55 2.5 36.4
05:45 1017 30.03 847 25.01 11.2 52.2 56 2.8 37
05:50 1017 30.03 847 25.01 11.2 52.2 54 2.4 36.3
05:55 1017 30.03 847 25.01 11.5 52.6 54 2.5 36.5
06:00 1017 30.03 847 25.01 11.8 53.2 46 0.7 33.2
06:05 1017 30.03 847 25.01 12.5 54.5 52 2.9 37.3
06:10 1017 30.03 847 25.01 12.1 53.7 49 1.6 35
06:15 1017 30.03 847 25.01 12.2 53.9 55 3.3 38
06:20 1017 30.03 847 25.01 11.5 52.7 57 3.4 38
06:25 1017 30.03 847 25.01 11.2 52.1 57 3 37.5
06:30 1017 30.03 847 25.01 11 51.8 59 3.4 38.2
06:35 1017 30.03 847 25.01 10.8 51.4 57 2.5 36.6
06:40 1017 30.03 847 25.01 10.9 51.6 58 3 37.5
06:45 1017 30.03 847 25.01 10.8 51.4 57 2.5 36.6
06:50 1017 30.03 847 25.01 10.9 51.5 59 3.3 37.9
06:55 1017 30.03 847 25.01 10.8 51.5 59 3.2 37.7
07:00 1017 30.03 847 25.01 10.9 51.6 55 2.3 36.1
07:05 1017 30.03 847 25.01 11.3 52.3 55 2.5 36.5
07:10 1018 30.06 847 25.01 11.2 52.1 56 2.8 37.1
07:15 1018 30.06 847 25.01 10.8 51.4 58 2.8 37
07:20 1018 30.06 847 25.01 10.6 51 58 2.7 36.9
07:25 1018 30.06 847 25.01 10.4 50.7 59 2.7 36.9
07:30 1018 30.06 847 25.01 10.3 50.6 59 2.8 37
07:35 1018 30.06 847 25.01 10.5 50.9 58 2.5 36.6
07:40 1018 30.06 847 25.01 10.8 51.4 59 3.2 37.7
07:45 1018 30.06 847 25.01 10.7 51.3 61 3.6 38.5
07:50 1018 30.06 847 25.01 10.5 50.9 58 2.7 36.8
07:55 1018 30.06 847 25.01 10.9 51.6 57 2.7 36.9
08:00 1018 30.06 847 25.01 11.4 52.5 56 3 37.5
08:05 1018 30.06 847 25.01 11.8 53.2 52 2.3 36.2
08:10 1018 30.06 847 25.01 12.2 54 51 2.5 36.4
08:15 1018 30.06 847 25.01 13.1 55.5 51 3.3 37.9
08:20 1018 30.06 847 25.01 13.9 57 48 3.1 37.6
08:25 1018 30.06 847 25.01 13.4 56.2 57 5.1 41.1
08:30 1018 30.06 847 25.01 12.5 54.5 58 4.6 40.3
08:35 1018 30.06 847 25.01 12.1 53.7 58 4.1 39.4
08:40 1018 30.06 847 25.01 12.8 55 50 2.7 36.9
08:45 1018 30.06 847 25.01 13.8 56.9 48 3 37.4
08:50 1018 30.06 847 25.01 14 57.3 47 3 37.5
08:55 1018 30.06 847 25.01 14.4 57.9 44 2.4 36.4
09:00 1018 30.06 847 25.01 14.9 58.9 43 2.5 36.6
09:05 1018 30.06 847 25.01 14.8 58.6 41 1.9 35.4
09:10 1018 30.06 847 25.01 15 59 41 2 35.6
09:15 1018 30.06 847 25.01 15 58.9 40 1.6 34.9
09:20 1018 30.06 847 25.01 15.1 59.1 41 1.9 35.5
09:25 1018 30.06 847 25.01 14.6 58.3 42 1.8 35.2
09:30 1018 30.06 847 25.01 14.8 58.6 40 1.5 34.7
09:35 1018 30.06 847 25.01 15 59 41 1.9 35.4
09:40 1018 30.06 847 25.01 15.2 59.4 40 1.9 35.4
09:45 1018 30.06 847 25.01 15.3 59.5 41 2.1 35.8
09:50 1018 30.06 847 25.01 14.9 58.8 42 2.3 36.2
09:55 1018 30.06 847 25.01 15 59 40 1.6 34.8
10:00 1018 30.06 847 25.01 15 59 40 1.6 35
10:05 1018 30.06 847 25.01 15.3 59.5 39 1.5 34.7
10:10 1018 30.06 847 25.01 15.9 60.6 38 1.7 35.1
10:15 1018 30.06 847 25.01 16.2 61.2 37 1.7 35.1
10:20 1018 30.06 847 25.01 16.3 61.4 35 0.8 33.5
10:25 1018 30.06 847 25.01 17 62.7 36 2.1 35.8
10:30 1018 30.06 847 25.01 17.5 63.5 37 2.6 36.7
10:35 1018 30.06 847 25.01 17.5 63.4 36 2.3 36.2
10:40 1018 30.06 847 25.01 17.5 63.5 34 1.5 34.6
10:45 1018 30.06 847 25.01 17.9 64.1 34 1.7 35.1
10:50 1018 30.06 847 25.01 17.8 64.1 34 2 35.7
10:55 1018 30.06 847 25.01 17.8 64.1 35 2.3 36.1
11:00 1018 30.06 847 25.01 17.8 64.1 34 1.8 35.3
11:05 1018 30.06 847 25.01 17.9 64.3 32 1.1 34
11:10 1018 30.06 847 25.01 17.9 64.2 32 1.3 34.3
11:15 1018 30.06 847 25.01 18.1 64.7 31 1 33.8
11:20 1018 30.06 847 25.01 18.2 64.8 31 1.1 34
11:25 1018 30.06 847 25.01 17.9 64.3 33 1.5 34.6
11:30 1018 30.06 847 25.01 18 64.4 33 1.5 34.6
11:35 1018 30.06 847 25.01 18.1 64.5 33 1.5 34.7
11:40 1018 30.06 847 25.01 18.4 65.2 33 2 35.6
11:45 1018 30.06 847 25.01 18.7 65.6 42 5.8 42.4
11:50 1018 30.06 848 25.04 18.3 64.9 41 4.9 40.8
11:55 1018 30.06 847 25.01 18.5 65.3 36 3.2 37.7
12:00 1018 30.06 847 25.01 18.4 65.1 32 1.7 35.1
12:05 1018 30.06 847 25.01 18.2 64.7 33 1.8 35.3
12:10 1018 30.06 847 25.01 18.7 65.6 30 0.7 33.3
12:15 1018 30.06 847 25.01 19.3 66.7 30 1.4 34.5
12:20 1018 30.06 847 25.01 19.4 66.9 31 2.1 35.8
12:25 1018 30.06 847 25.01 19.1 66.4 32 2.2 35.9
12:30 1018 30.06 847 25.01 19.1 66.4 32 2 35.6
12:35 1018 30.06 847 25.01 19.9 67.9 30 2 35.6
12:40 1018 30.06 847 25.01 20.3 68.5 31 2.8 37
12:45 1018 30.06 847 25.01 20.4 68.7 32 3.1 37.7
12:50 1018 30.06 847 25.01 20.9 69.6 29 2.2 35.9
12:55 1018 30.06 847 25.01 20.6 69 29 2.3 36.1
13:00 1018 30.06 847 25.01 20.6 69.2 30 2.7 36.9
13:05 1018 30.06 847 25.01 20.9 69.6 29 2.2 36
13:10 1018 30.06 847 25.01 21 69.8 28 2.1 35.8
13:15 1018 30.06 847 25.01 20.5 68.8 30 2.6 36.7
13:20 1018 30.06 847 25.01 20.3 68.6 31 2.8 37.1
13:25 1018 30.06 847 25.01 21.5 70.7 28 2.5 36.4
13:30 1018 30.06 847 25.01 21.4 70.6 30 3.5 38.2
13:35 1018 30.06 847 25.01 20.7 69.3 31 3.2 37.8
13:40 1018 30.06 847 25.01 20.1 68.1 31 2.5 36.5
13:45 1018 30.06 847 25.01 20.6 69 32 3.3 38
13:50 1018 30.06 847 25.01 21.2 70.1 29 2.8 37
13:55 1018 30.06 847 25.01 21.7 71 28 2.8 37
14:00 1018 30.06 847 25.01 22 71.6 28 3 37.5
14:05 1018 30.06 847 25.01 22.2 71.9 28 3.2 37.8
14:10 1018 30.06 847 25.01 22.5 72.5 27 2.9 37.2
14:15 1018 30.06 847 25.01 22.6 72.6 29 3.7 38.7
14:20 1018 30.06 847 25.01 22.6 72.6 28 3.5 38.2
14:25 1018 30.06 847 25.01 21.8 71.2 31 4 39.3
14:30 1018 30.06 847 25.01 22.5 72.4 27 2.5 36.6
14:35 1018 30.06 847 25.01 23.3 74 27 3.5 38.3
14:40 1018 30.06 847 25.01 22.3 72.2 28 3.3 38
14:45 1018 30.06 847 25.01 21.5 70.8 29 2.9 37.2
14:50 1018 30.06 847 25.01 21.7 71 27 2.2 36
14:55 1018 30.06 847 25.01 22.1 71.7 27 2.3 36.1
15:00 1018 30.06 847 25.01 22.8 73 27 2.8 37
15:05 1018 30.06 847 25.01 22.5 72.5 28 3.1 37.7
15:10 1018 30.06 847 25.01 21.6 70.8 29 2.8 37
15:15 1018 30.06 847 25.01 21.1 70 30 3.2 37.8
15:20 1018 30.06 847 25.01 20.6 69.1 30 2.8 37.1
15:25 1018 30.06 847 25.01 20.7 69.2 30 2.7 36.8
15:30 1018 30.06 847 25.01 21.4 70.4 29 2.6 36.8
15:35 1018 30.06 847 25.01 22.5 72.6 27 3 37.5
15:40 1018 30.06 847 25.01 21.7 71 29 2.9 37.2
15:45 1018 30.06 847 25.01 21.2 70.1 29 2.8 37
15:50 1018 30.06 847 25.01 21.6 70.9 28 2.4 36.3
15:55 1018 30.06 847 25.01 21.5 70.8 29 3 37.4
16:00 1018 30.06 847 25.01 21.3 70.4 30 3.1 37.5
16:05 1018 30.06 847 25.01 21.1 70 30 3.1 37.7
16:10 1018 30.06 847 25.01 20.4 68.8 32 3.4 38.1
16:15 1018 30.06 847 25.01 20.5 68.9 31 2.9 37.1
16:20 1018 30.06 847 25.01 21.4 70.6 30 3.4 38.2
16:25 1018 30.06 847 25.01 21.6 70.9 29 3.1 37.6
16:30 1018 30.06 847 25.01 22 71.6 29 3.3 38
16:35 1018 30.06 847 25.01 21.7 71.1 30 3.4 38.2
16:40 1018 30.06 847 25.01 21.8 71.3 30 3.5 38.3
16:45 1018 30.06 847 25.01 21.6 70.8 30 3.6 38.4
16:50 1018 30.06 847 25.01 21.2 70.2 31 3.6 38.5
16:55 1018 30.06 847 25.01 21.5 70.8 31 3.8 38.8
17:00 1018 30.06 847 25.01 21.8 71.2 29 3.1 37.6
17:05 1018 30.06 847 25.01 21.2 70.1 32 4 39.2
17:10 1018 30.06 847 25.01 20.5 68.9 33 4 39.2
17:15 1018 30.06 847 25.01 19.6 67.2 37 4.5 40.2
17:20 1018 30.06 847 25.01 19.3 66.7 37 4.4 40
17:25 1018 30.06 847 25.01 19.5 67 36 4.2 39.5
17:30 1018 30.06 847 25.01 19.5 67.2 37 4.5 40.1
17:35 1018 30.06 847 25.01 19 66.3 38 4.6 40.4
17:40 1018 30.06 847 25.01 19.3 66.8 37 4.3 39.7
17:45 1018 30.06 847 25.01 19 66.1 37 4.2 39.5
17:50 1018 30.06 847 25.01 18.6 65.5 39 4.5 40.2
17:55 1018 30.06 847 25.01 18.8 65.8 38 4.3 39.7
18:00 1018 30.06 847 25.01 19.1 66.3 39 4.8 40.7
18:05 1018 30.06 847 25.01 19.1 66.4 39 4.9 40.8
18:10 1018 30.06 847 25.01 19.2 66.5 38 4.7 40.5
18:15 1018 30.06 847 25.01 19.3 66.8 38 4.9 40.8
18:20 1018 30.06 847 25.01 19.3 66.7 40 5.3 41.6
18:25 1018 30.06 847 25.01 18.9 65.9 42 5.7 42.2
18:30 1018 30.06 847 25.01 18.4 65.2 42 5.4 41.8
18:35 1018 30.06 847 25.01 18.1 64.5 44 5.8 42.4
18:40 1018 30.06 847 25.01 17.8 64 45 5.8 42.5
18:45 1018 30.06 847 25.01 17.5 63.6 46 5.9 42.7
18:50 1018 30.06 847 25.01 17.3 63.2 46 5.8 42.4
18:55 1018 30.06 847 25.01 17.2 62.9 47 5.9 42.6
19:00 1018 30.06 847 25.01 17.2 62.9 48 6.2 43.1
19:05 1018 30.06 847 25.01 17.1 62.8 47 5.8 42.5
19:10 1018 30.06 847 25.01 17.1 62.8 47 5.8 42.5
19:15 1018 30.06 848 25.04 17 62.6 47 5.8 42.4
19:20 1018 30.06 848 25.04 16.9 62.5 48 5.8 42.5
19:25 1018 30.06 848 25.04 16.9 62.4 48 5.9 42.7
19:30 1018 30.06 848 25.04 17 62.7 47 5.9 42.6
19:35 1018 30.06 848 25.04 17.1 62.7 48 6.2 43.2
19:40 1018 30.06 848 25.04 17 62.5 48 6.1 42.9
19:45 1018 30.06 848 25.04 16.8 62.2 50 6.3 43.4
19:50 1018 30.06 848 25.04 16.7 62.1 49 6.1 43
19:55 1019 30.09 848 25.04 16.7 62 50 6.4 43.5
20:00 1019 30.09 848 25.04 16.7 62 50 6.4 43.6
20:05 1019 30.09 848 25.04 16.6 61.9 53 7 44.6
20:10 1019 30.09 848 25.04 16.1 61.1 56 7.5 45.5
20:15 1019 30.09 848 25.04 15.4 59.7 59 7.4 45.3
20:20 1019 30.09 848 25.04 15 58.9 60 7.4 45.3
20:25 1019 30.09 848 25.04 14.9 58.8 60 7.3 45.1
20:30 1019 30.09 848 25.04 14.9 58.9 59 7.1 44.8
20:35 1019 30.09 848 25.04 14.9 58.9 60 7.2 45
20:40 1019 30.09 848 25.04 14.8 58.7 61 7.3 45.2
20:45 1019 30.09 848 25.04 14.4 57.9 63 7.6 45.6
20:50 1019 30.09 848 25.04 14.2 57.5 63 7.4 45.3
20:55 1019 30.09 848 25.04 14 57.3 64 7.5 45.5
21:00 1019 30.09 848 25.04 13.9 57 64 7.3 45.1
21:05 1019 30.09 848 25.04 14 57.1 63 7.1 44.9
21:10 1019 30.09 849 25.07 13.9 57.1 64 7.3 45.2
21:15 1019 30.09 849 25.07 13.8 56.9 64 7.2 45
21:20 1019 30.09 849 25.07 13.8 56.8 65 7.3 45.1
21:25 1019 30.09 849 25.07 13.8 56.8 63 6.9 44.5
21:30 1019 30.09 849 25.07 13.9 56.9 63 7.1 44.8
21:35 1019 30.09 849 25.07 13.8 56.9 63 7 44.6
21:40 1019 30.09 849 25.07 14 57.3 63 7.2 44.9
21:45 1019 30.09 849 25.07 13.9 57 64 7.4 45.3
21:50 1019 30.09 849 25.07 13.7 56.6 65 7.3 45.2
21:55 1019 30.09 849 25.07 13.7 56.7 64 7.2 44.9
22:00 1019 30.09 849 25.07 13.8 56.8 64 7.1 44.8
22:05 1019 30.09 849 25.07 13.9 56.9 64 7.1 44.9
22:10 1019 30.09 849 25.07 13.8 56.8 65 7.3 45.2
22:15 1019 30.09 849 25.07 13.7 56.6 65 7.2 45
22:20 1019 30.09 849 25.07 13.6 56.5 65 7.3 45.2
22:25 1019 30.09 849 25.07 13.6 56.5 65 7.2 44.9
22:30 1019 30.09 849 25.07 13.7 56.7 65 7.3 45.2
22:35 1019 30.09 849 25.07 13.6 56.6 65 7.3 45.1
22:40 1019 30.09 849 25.07 13.5 56.3 66 7.3 45.1
22:45 1019 30.09 849 25.07 13.4 56.2 66 7.2 45
22:50 1019 30.09 849 25.07 13.4 56.2 66 7.2 45
22:55 1019 30.09 849 25.07 13.3 56 66 7.2 45
23:00 1020 30.12 849 25.07 13.3 55.9 66 7.2 44.9
23:05 1020 30.12 849 25.07 13.3 55.9 67 7.3 45.1
23:10 1020 30.12 849 25.07 13.2 55.8 68 7.6 45.7
23:15 1020 30.12 849 25.07 13 55.4 68 7.4 45.3
23:20 1020 30.12 849 25.07 12.9 55.2 69 7.4 45.4
23:25 1020 30.12 849 25.07 12.7 54.9 70 7.4 45.3
23:30 1020 30.12 849 25.07 12.7 54.9 71 7.7 45.8
23:35 1020 30.12 849 25.07 12.7 54.8 70 7.5 45.4
23:40 1020 30.12 849 25.07 12.6 54.6 72 7.7 45.9
23:45 1020 30.12 849 25.07 12.6 54.7 74 8 46.5
23:50 1020 30.12 849 25.07 12.7 54.8 71 7.5 45.6
23:55 1020 30.12 849 25.07 12.7 54.9 73 8 46.3
24:00 1020 30.12 849 25.07 12.9 55.2 74 8.4 47